Time;durP1;ratioP1;P1;durP2;ratioP2;P2;SDS_P1;SDS_P2;PMS_P1;PMS_P2;Temp;Humidity;BMP_temperature;BMP_pressure;BME280_temperature;BME280_humidity;BME280_pressure;Samples;Min_cycle;Max_cycle;Signal;HPM_P1;HPM_P2
2023/06/22 00:00:27;;;;;;;13.48;12.18;;;21.90;86.40;;;;;;5052148;28;20531;-58
2023/06/22 00:02:53;;;;;;;13.27;11.77;;;21.90;86.60;;;;;;5052264;28;20108;-58
2023/06/22 00:05:19;;;;;;;14.15;12.75;;;21.90;86.50;;;;;;5052219;28;20025;-58
2023/06/22 00:07:44;;;;;;;13.90;12.60;;;21.80;86.70;;;;;;5050220;28;20472;-58
2023/06/22 00:10:10;;;;;;;14.55;13.05;;;21.80;87.00;;;;;;5052078;28;20039;-59
2023/06/22 00:12:35;;;;;;;15.13;13.65;;;21.80;87.30;;;;;;5052015;28;20025;-58
2023/06/22 00:15:01;;;;;;;14.82;13.18;;;21.80;87.60;;;;;;5051876;28;20060;-58
2023/06/22 00:17:27;;;;;;;12.18;11.07;;;21.80;87.90;;;;;;5051953;28;20031;-58
2023/06/22 00:19:55;;;;;;;14.38;12.98;;;21.80;88.10;;;;;;5051930;28;20033;-58
2023/06/22 00:22:28;;;;;;;14.15;12.68;;;21.70;88.30;;;;;;5052089;28;20075;-58
2023/06/22 00:24:56;;;;;;;15.13;13.02;;;21.70;88.60;;;;;;5052164;28;20044;-58
2023/06/22 00:27:22;;;;;;;14.50;13.18;;;21.80;89.30;;;;;;5051718;28;20104;-58
2023/06/22 00:29:48;;;;;;;14.38;12.98;;;21.70;90.00;;;;;;5051926;28;20092;-58
2023/06/22 00:32:13;;;;;;;14.25;12.85;;;21.80;90.10;;;;;;5051773;28;20041;-58
2023/06/22 00:34:39;;;;;;;14.88;13.10;;;21.80;90.20;;;;;;5051731;28;20040;-58
2023/06/22 00:37:04;;;;;;;14.35;12.95;;;21.70;90.30;;;;;;5051629;28;20029;-58
2023/06/22 00:39:32;;;;;;;13.80;12.43;;;21.80;90.50;;;;;;5051890;28;20504;-58
2023/06/22 00:41:59;;;;;;;14.13;12.73;;;21.80;90.50;;;;;;5050731;28;20103;-56
2023/06/22 00:44:24;;;;;;;13.88;12.57;;;21.80;90.50;;;;;;5050327;28;20100;-56
2023/06/22 00:46:54;;;;;;;15.48;13.35;;;21.80;90.50;;;;;;5050023;28;20100;-58
2023/06/22 00:49:20;;;;;;;15.73;14.10;;;21.80;90.50;;;;;;5050218;28;20021;-57
2023/06/22 00:51:47;;;;;;;16.90;14.07;;;21.80;90.50;;;;;;5049913;28;20047;-58
2023/06/22 00:54:13;;;;;;;14.65;13.25;;;21.80;90.40;;;;;;5050144;28;20029;-58
2023/06/22 00:56:41;;;;;;;13.95;12.45;;;21.80;90.30;;;;;;5050713;28;20538;-58
2023/06/22 00:59:06;;;;;;;15.15;13.52;;;21.80;90.30;;;;;;5051286;28;20156;-58
2023/06/22 01:01:34;;;;;;;15.35;13.70;;;21.80;90.20;;;;;;5051228;28;20140;-57
2023/06/22 01:04:00;;;;;;;16.45;14.38;;;21.80;90.20;;;;;;5051405;28;20028;-58
2023/06/22 01:06:38;;;;;;;15.95;14.35;;;21.80;90.10;;;;;;5033189;28;20117;-58
2023/06/22 01:09:15;;;;;;;15.85;14.25;;;21.80;89.80;;;;;;5051174;28;20431;-58
2023/06/22 01:11:57;;;;;;;15.73;14.13;;;21.80;89.70;;;;;;5051418;28;20047;-58
2023/06/22 01:14:37;;;;;;;17.00;15.30;;;21.80;89.40;;;;;;5051161;28;20075;-58
2023/06/22 01:17:05;;;;;;;16.08;14.48;;;21.80;89.40;;;;;;5051092;28;20029;-57
2023/06/22 01:19:52;;;;;;;17.67;15.88;;;21.70;89.60;;;;;;5051074;28;20059;-55
2023/06/22 01:22:19;;;;;;;17.85;15.98;;;21.70;89.10;;;;;;5052224;28;20040;-58
2023/06/22 01:24:54;;;;;;;16.65;15.05;;;21.70;89.40;;;;;;5057613;28;20111;-55
2023/06/22 01:27:32;;;;;;;17.98;16.08;;;21.70;89.10;;;;;;5057875;28;20143;-58
2023/06/22 01:30:00;;;;;;;21.65;19.02;;;21.60;89.30;;;;;;5057576;28;20495;-58
2023/06/22 01:32:34;;;;;;;21.92;19.17;;;21.60;89.00;;;;;;5057793;28;20103;-58
2023/06/22 01:35:03;;;;;;;22.55;19.60;;;21.60;88.60;;;;;;5057615;28;20021;-56
2023/06/22 01:37:31;;;;;;;20.40;17.92;;;21.60;88.60;;;;;;5057456;28;20052;-58
2023/06/22 01:39:58;;;;;;;20.17;18.27;;;21.60;88.60;;;;;;5057687;28;20054;-55
2023/06/22 01:42:25;;;;;;;20.15;17.95;;;21.60;88.80;;;;;;5057512;28;20031;-58
2023/06/22 01:44:53;;;;;;;20.48;18.38;;;21.50;88.70;;;;;;5057589;28;20147;-58
2023/06/22 01:47:22;;;;;;;20.60;18.40;;;21.50;88.60;;;;;;5057469;28;20035;-58
2023/06/22 01:49:49;;;;;;;20.30;18.08;;;21.50;88.70;;;;;;5057413;28;20029;-56
2023/06/22 01:52:15;;;;;;;22.48;20.17;;;21.50;88.80;;;;;;5057604;28;20392;-57
2023/06/22 01:54:41;;;;;;;22.98;20.58;;;21.50;88.80;;;;;;5057663;28;20017;-58
2023/06/22 01:57:08;;;;;;;21.35;19.23;;;21.40;88.80;;;;;;5057415;28;20083;-58
2023/06/22 01:59:36;;;;;;;22.17;19.85;;;21.40;89.00;;;;;;5057849;28;20535;-58
2023/06/22 02:02:06;;;;;;;23.27;20.88;;;21.40;89.00;;;;;;5057064;28;20094;-58
2023/06/22 02:04:44;;;;;;;23.25;20.08;;;21.40;89.20;;;;;;5057182;28;20383;-58
2023/06/22 02:07:14;;;;;;;22.15;19.83;;;21.40;89.10;;;;;;5055248;28;20040;-55
2023/06/22 02:09:42;;;;;;;23.60;21.10;;;21.40;89.20;;;;;;5057221;28;20519;-58
2023/06/22 02:12:10;;;;;;;22.92;20.30;;;21.40;89.30;;;;;;5057322;28;20374;-58
2023/06/22 02:14:36;;;;;;;23.17;20.73;;;21.40;89.40;;;;;;5057385;28;20032;-57
2023/06/22 02:17:04;;;;;;;23.40;21.08;;;21.40;89.40;;;;;;5056895;28;20020;-58
2023/06/22 02:19:33;;;;;;;24.85;21.35;;;21.40;89.60;;;;;;5057160;28;20583;-57
2023/06/22 02:21:58;;;;;;;24.25;21.85;;;21.40;89.80;;;;;;5056881;28;20060;-58
2023/06/22 02:24:24;;;;;;;24.60;22.20;;;21.40;90.00;;;;;;5048044;28;20052;-56
2023/06/22 02:26:49;;;;;;;23.77;21.38;;;21.40;90.00;;;;;;5036298;28;20072;-58
2023/06/22 02:29:15;;;;;;;22.95;20.63;;;21.50;90.00;;;;;;5036660;28;20029;-58
2023/06/22 02:31:41;;;;;;;23.65;20.33;;;21.60;90.00;;;;;;5037209;28;20030;-58
2023/06/22 02:34:06;;;;;;;21.70;19.40;;;21.60;90.00;;;;;;5035344;28;20519;-58
2023/06/22 02:36:33;;;;;;;20.65;18.48;;;21.60;90.10;;;;;;5033817;28;20029;-58
2023/06/22 02:39:01;;;;;;;18.02;16.27;;;21.70;90.00;;;;;;5034151;28;20468;-58
2023/06/22 02:41:27;;;;;;;17.60;15.80;;;21.70;90.00;;;;;;5034073;28;20029;-57
2023/06/22 02:43:52;;;;;;;18.58;14.95;;;21.80;89.80;;;;;;5034042;28;20473;-58
2023/06/22 02:46:18;;;;;;;16.48;14.77;;;21.80;90.00;;;;;;5033664;28;20088;-58
2023/06/22 02:48:44;;;;;;;17.25;15.52;;;21.90;89.80;;;;;;5033813;28;20037;-58
2023/06/22 02:51:09;;;;;;;19.55;15.45;;;21.90;89.90;;;;;;5033923;28;20079;-58
2023/06/22 02:53:35;;;;;;;17.38;15.68;;;22.00;89.50;;;;;;5033979;28;20474;-58
2023/06/22 02:56:05;;;;;;;18.33;16.50;;;22.00;89.40;;;;;;5033551;28;20083;-58
2023/06/22 02:58:38;;;;;;;19.00;17.10;;;22.10;89.10;;;;;;5033735;28;20037;-57
2023/06/22 03:01:05;;;;;;;21.15;18.90;;;22.10;89.40;;;;;;5033809;28;20045;-58
2023/06/22 03:03:31;;;;;;;22.42;20.13;;;22.20;89.40;;;;;;5033385;28;20025;-55
2023/06/22 03:05:56;;;;;;;24.40;20.80;;;22.30;89.50;;;;;;5033614;28;20029;-58
2023/06/22 03:08:22;;;;;;;21.88;19.58;;;22.30;89.50;;;;;;5040774;28;20027;-58
2023/06/22 03:10:47;;;;;;;19.33;17.27;;;22.40;89.20;;;;;;5051323;28;20079;-57
2023/06/22 03:13:13;;;;;;;19.92;17.88;;;22.50;89.70;;;;;;5051277;28;20039;-58
2023/06/22 03:15:39;;;;;;;19.58;17.58;;;22.60;89.00;;;;;;5052954;28;20400;-58
2023/06/22 03:18:04;;;;;;;20.50;18.50;;;22.60;88.70;;;;;;5053301;28;20060;-59
2023/06/22 03:20:33;;;;;;;23.52;21.08;;;22.70;88.10;;;;;;5053103;28;20438;-58
2023/06/22 03:22:59;;;;;;;21.35;19.15;;;22.70;87.70;;;;;;5053230;28;20024;-58
2023/06/22 03:25:25;;;;;;;21.30;19.10;;;22.80;87.20;;;;;;5053507;28;20025;-58
2023/06/22 03:27:50;;;;;;;20.58;18.38;;;22.90;87.10;;;;;;5052974;28;20591;-55
2023/06/22 03:30:16;;;;;;;21.10;18.90;;;23.00;86.60;;;;;;5052785;28;20025;-58
2023/06/22 03:32:43;;;;;;;20.00;17.88;;;23.10;86.60;;;;;;5052769;28;20088;-58
2023/06/22 03:35:09;;;;;;;20.38;18.30;;;23.20;87.30;;;;;;5052884;28;20075;-58
2023/06/22 03:37:34;;;;;;;19.10;17.17;;;23.50;87.10;;;;;;5051226;28;20021;-59
2023/06/22 03:40:00;;;;;;;20.23;18.08;;;23.90;86.70;;;;;;5052698;28;20048;-57
2023/06/22 03:42:26;;;;;;;19.55;16.70;;;24.30;85.20;;;;;;5051204;28;20037;-58
2023/06/22 03:44:51;;;;;;;17.67;15.82;;;25.00;83.70;;;;;;5052558;28;20035;-56
2023/06/22 03:47:17;;;;;;;18.30;15.30;;;25.60;81.30;;;;;;5052279;28;20021;-59
2023/06/22 03:49:43;;;;;;;16.35;14.60;;;26.20;79.30;;;;;;5052424;28;20221;-58
2023/06/22 03:52:10;;;;;;;17.67;15.70;;;27.10;77.30;;;;;;5051239;28;20036;-57
2023/06/22 03:54:36;;;;;;;16.92;15.23;;;27.90;74.60;;;;;;5052192;28;20419;-58
2023/06/22 03:57:02;;;;;;;16.05;14.35;;;28.70;72.30;;;;;;5050410;28;20086;-59
2023/06/22 03:59:27;;;;;;;18.02;15.25;;;29.40;69.90;;;;;;5050140;28;20028;-58
2023/06/22 04:01:53;;;;;;;15.63;13.98;;;30.20;67.80;;;;;;5050554;28;20068;-58
2023/06/22 04:04:19;;;;;;;15.07;13.27;;;30.90;66.00;;;;;;5050617;28;20537;-54
2023/06/22 04:06:44;;;;;;;15.40;13.10;;;31.60;64.30;;;;;;5050587;28;20388;-56
2023/06/22 04:09:10;;;;;;;14.73;13.15;;;32.30;62.50;;;;;;5051187;28;20094;-56
2023/06/22 04:11:36;;;;;;;13.32;11.80;;;32.90;60.80;;;;;;5051943;28;20033;-56
2023/06/22 04:14:01;;;;;;;13.52;12.13;;;33.50;59.60;;;;;;5052104;28;20051;-56
2023/06/22 04:16:27;;;;;;;12.73;11.30;;;34.10;58.40;;;;;;5051779;28;20068;-55
2023/06/22 04:18:53;;;;;;;13.40;11.38;;;34.60;57.10;;;;;;5052026;28;20025;-57
2023/06/22 04:21:22;;;;;;;13.32;11.55;;;35.10;55.90;;;;;;5051750;28;20032;-57
2023/06/22 04:23:47;;;;;;;13.23;11.93;;;35.60;54.90;;;;;;5051972;28;20033;-56
2023/06/22 04:26:16;;;;;;;13.02;11.73;;;36.00;54.10;;;;;;5052204;28;20032;-57
2023/06/22 04:28:42;;;;;;;12.90;11.23;;;36.40;53.30;;;;;;5051883;28;20044;-57
2023/06/22 04:31:07;;;;;;;12.82;11.25;;;36.80;52.60;;;;;;5051815;28;20033;-56
2023/06/22 04:33:33;;;;;;;13.23;10.90;;;37.10;51.90;;;;;;5051762;28;20029;-57
2023/06/22 04:36:02;;;;;;;12.05;10.85;;;37.40;51.30;;;;;;5051714;28;20033;-56
2023/06/22 04:38:27;;;;;;;12.88;11.57;;;37.80;50.60;;;;;;5051986;28;20031;-57
2023/06/22 04:40:53;;;;;;;12.50;11.02;;;38.10;50.20;;;;;;5051817;28;20033;-56
2023/06/22 04:43:19;;;;;;;12.20;10.82;;;38.40;49.90;;;;;;5051620;28;20087;-54
2023/06/22 04:45:45;;;;;;;11.38;10.18;;;38.80;49.00;;;;;;5051758;28;20052;-56
2023/06/22 04:48:15;;;;;;;10.75;9.65;;;39.00;48.40;;;;;;5051373;28;20060;-57
2023/06/22 04:50:41;;;;;;;11.75;10.50;;;39.20;47.70;;;;;;5051710;28;20086;-57
2023/06/22 04:53:09;;;;;;;13.68;10.40;;;39.30;47.30;;;;;;5051477;28;20036;-56
2023/06/22 04:55:37;;;;;;;11.40;10.18;;;39.20;46.90;;;;;;5051544;28;20098;-58
2023/06/22 04:58:04;;;;;;;11.35;10.05;;;39.10;46.60;;;;;;5050857;28;20029;-57
2023/06/22 05:00:31;;;;;;;11.32;9.77;;;39.00;46.60;;;;;;5051331;28;20032;-57
2023/06/22 05:02:57;;;;;;;10.10;9.10;;;38.90;46.50;;;;;;5051310;28;20025;-57
2023/06/22 05:05:23;;;;;;;9.55;8.40;;;38.90;46.50;;;;;;5051202;28;20047;-57
2023/06/22 05:07:52;;;;;;;10.18;9.07;;;39.00;46.30;;;;;;5051265;28;20024;-57
2023/06/22 05:10:19;;;;;;;9.90;8.10;;;39.00;46.10;;;;;;5051464;28;20032;-57
2023/06/22 05:12:44;;;;;;;9.55;8.32;;;39.00;46.10;;;;;;5051097;28;20057;-57
2023/06/22 05:15:10;;;;;;;9.27;8.27;;;39.00;45.80;;;;;;5051355;28;20072;-57
2023/06/22 05:17:42;;;;;;;10.50;8.20;;;39.10;45.60;;;;;;5051194;28;20028;-57
2023/06/22 05:20:12;;;;;;;9.38;8.43;;;39.10;45.20;;;;;;5049833;28;20036;-57
2023/06/22 05:22:40;;;;;;;9.48;8.38;;;39.00;44.60;;;;;;5049068;28;20021;-56
2023/06/22 05:25:09;;;;;;;9.05;8.15;;;38.80;44.60;;;;;;5049425;28;20021;-56
2023/06/22 05:27:39;;;;;;;11.13;9.45;;;38.20;44.60;;;;;;5048716;28;20375;-55
2023/06/22 05:30:06;;;;;;;9.90;8.90;;;37.40;45.20;;;;;;5048921;28;20074;-54
2023/06/22 05:32:33;;;;;;;10.60;9.55;;;36.50;46.40;;;;;;5049115;28;20033;-56
2023/06/22 05:34:59;;;;;;;10.68;9.57;;;35.70;47.20;;;;;;5048840;28;20257;-55
2023/06/22 05:37:24;;;;;;;15.60;11.25;;;34.90;48.30;;;;;;5047563;28;20037;-56
2023/06/22 05:39:50;;;;;;;12.07;10.50;;;34.10;49.70;;;;;;5049219;28;20037;-53
2023/06/22 05:42:16;;;;;;;12.32;10.57;;;33.50;51.40;;;;;;5050120;28;20033;-55
2023/06/22 05:44:41;;;;;;;11.32;9.93;;;32.90;52.70;;;;;;5034703;28;20469;-55
2023/06/22 05:47:07;;;;;;;11.10;10.00;;;32.40;54.00;;;;;;5022831;28;20028;-55
2023/06/22 05:49:33;;;;;;;12.38;10.60;;;31.90;55.20;;;;;;5026996;28;20036;-56
2023/06/22 05:51:59;;;;;;;11.85;9.57;;;31.60;56.20;;;;;;5030140;28;20025;-56
2023/06/22 05:54:27;;;;;;;11.85;10.32;;;31.30;57.10;;;;;;5030460;28;20025;-56
2023/06/22 05:56:52;;;;;;;10.93;9.75;;;31.00;58.00;;;;;;5028155;28;20559;-55
2023/06/22 05:59:18;;;;;;;10.82;9.70;;;30.80;58.50;;;;;;5031695;28;20065;-53
2023/06/22 06:01:44;;;;;;;12.18;10.98;;;30.60;58.80;;;;;;5032568;28;20029;-56
2023/06/22 06:04:09;;;;;;;13.00;10.77;;;30.40;59.30;;;;;;5043318;28;20025;-54
2023/06/22 06:06:36;;;;;;;13.45;11.10;;;30.20;59.80;;;;;;5035217;28;20513;-56
2023/06/22 06:09:04;;;;;;;12.45;9.98;;;30.10;60.20;;;;;;5039476;28;20358;-55
2023/06/22 06:11:29;;;;;;;11.45;10.35;;;30.00;60.90;;;;;;5050910;28;20378;-55
2023/06/22 06:13:55;;;;;;;11.20;10.02;;;29.80;61.50;;;;;;5046188;28;20045;-55
2023/06/22 06:16:21;;;;;;;12.38;11.18;;;29.70;62.10;;;;;;5033355;28;20041;-53
2023/06/22 06:18:49;;;;;;;11.63;10.02;;;29.50;62.60;;;;;;5037660;28;20033;-54
2023/06/22 06:21:15;;;;;;;12.18;10.02;;;29.40;63.20;;;;;;5044734;28;20040;-56
2023/06/22 06:23:40;;;;;;;11.82;10.63;;;29.30;63.50;;;;;;5031080;28;20397;-56
2023/06/22 06:26:06;;;;;;;12.15;10.70;;;29.10;63.90;;;;;;5030652;28;20039;-56
2023/06/22 06:28:33;;;;;;;11.85;10.52;;;29.00;64.60;;;;;;5028383;28;20030;-55
2023/06/22 06:30:58;;;;;;;11.18;9.98;;;28.90;65.00;;;;;;5029046;28;20061;-54
2023/06/22 06:33:24;;;;;;;11.32;10.20;;;28.80;65.40;;;;;;5032575;28;20068;-55
2023/06/22 06:35:50;;;;;;;12.70;11.35;;;28.70;65.70;;;;;;5031588;28;20449;-56
2023/06/22 06:38:15;;;;;;;13.02;10.43;;;28.70;66.00;;;;;;5029554;28;20038;-56
2023/06/22 06:40:41;;;;;;;12.38;11.00;;;28.60;66.30;;;;;;5030949;28;20531;-55
2023/06/22 06:43:07;;;;;;;12.05;10.85;;;28.50;66.60;;;;;;5030027;28;20032;-52
2023/06/22 06:45:34;;;;;;;12.52;11.23;;;28.40;67.00;;;;;;5029076;28;20045;-53
2023/06/22 06:48:00;;;;;;;14.05;10.77;;;28.40;67.20;;;;;;5021550;28;20669;-56
2023/06/22 06:50:26;;;;;;;12.63;10.77;;;28.30;67.20;;;;;;5028248;28;20037;-54
2023/06/22 07:05:41;;;;;;;12.70;11.50;;;28.20;66.80;;;;;;5100916;27;20409;-56
2023/06/22 07:08:07;;;;;;;12.38;10.82;;;28.50;68.80;;;;;;5078654;28;20078;-56
2023/06/22 07:10:33;;;;;;;12.68;11.38;;;28.40;69.00;;;;;;5081886;28;20093;-57
2023/06/22 07:12:58;;;;;;;11.88;10.68;;;28.30;69.30;;;;;;5076663;28;20066;-55
2023/06/22 07:15:24;;;;;;;11.93;10.73;;;28.20;69.60;;;;;;5088711;28;20031;-53
2023/06/22 07:17:50;;;;;;;13.02;10.75;;;28.10;69.80;;;;;;5076452;28;20111;-56
2023/06/22 07:20:16;;;;;;;11.95;10.75;;;28.10;69.80;;;;;;5052100;27;20055;-56
2023/06/22 07:22:44;;;;;;;10.98;9.88;;;28.00;69.80;;;;;;5046310;28;20112;-56
2023/06/22 07:25:10;;;;;;;10.88;9.77;;;27.90;70.50;;;;;;5041865;28;20463;-54
2023/06/22 07:27:43;;;;;;;11.73;10.50;;;27.80;70.60;;;;;;5046413;28;20037;-56
2023/06/22 07:30:09;;;;;;;11.18;10.07;;;27.70;70.90;;;;;;5048194;28;20043;-55
2023/06/22 07:32:35;;;;;;;11.15;9.95;;;27.70;70.90;;;;;;5039492;28;20083;-54
2023/06/22 07:35:02;;;;;;;11.20;9.93;;;27.60;71.50;;;;;;5036639;28;20025;-54
2023/06/22 07:37:28;;;;;;;11.52;10.32;;;27.60;71.40;;;;;;5039551;28;20024;-54
2023/06/22 07:39:58;;;;;;;13.57;10.80;;;27.50;71.60;;;;;;5048391;28;20038;-55
2023/06/22 07:42:25;;;;;;;11.48;10.30;;;27.50;71.50;;;;;;5061722;28;20026;-54
2023/06/22 07:44:51;;;;;;;11.73;10.52;;;27.40;71.70;;;;;;5043287;28;20520;-56
2023/06/22 07:47:19;;;;;;;12.27;10.35;;;27.30;71.80;;;;;;5041070;28;20036;-58
2023/06/22 07:49:45;;;;;;;11.50;10.23;;;27.20;72.00;;;;;;5035279;28;20138;-55
2023/06/22 07:52:11;;;;;;;12.18;10.98;;;27.10;72.10;;;;;;5031676;28;20034;-57
2023/06/22 07:54:36;;;;;;;12.95;11.10;;;27.10;72.30;;;;;;5050508;28;20039;-56
2023/06/22 07:57:02;;;;;;;12.30;10.20;;;27.10;72.60;;;;;;5040124;28;20116;-56
2023/06/22 07:59:28;;;;;;;13.70;11.20;;;27.00;73.30;;;;;;5044459;28;20033;-57
2023/06/22 08:01:55;;;;;;;12.10;10.75;;;27.00;72.90;;;;;;5044340;28;20365;-57
2023/06/22 08:04:21;;;;;;;14.52;10.48;;;27.00;72.80;;;;;;5040081;28;20403;-56
2023/06/22 08:06:46;;;;;;;12.50;11.20;;;26.90;72.60;;;;;;5025868;28;20034;-51
2023/06/22 08:09:12;;;;;;;11.85;10.45;;;26.80;72.80;;;;;;5023851;28;20040;-55
2023/06/22 08:11:38;;;;;;;12.65;11.45;;;26.80;73.20;;;;;;5027033;28;20021;-58
2023/06/22 08:14:03;;;;;;;13.13;11.70;;;26.80;73.50;;;;;;5025064;28;20033;-54
2023/06/22 08:16:29;;;;;;;13.55;12.15;;;26.70;73.60;;;;;;5018449;28;20037;-57
2023/06/22 08:18:55;;;;;;;13.15;11.75;;;26.70;73.40;;;;;;5026482;28;20029;-53
2023/06/22 08:21:20;;;;;;;11.75;10.55;;;26.70;73.40;;;;;;5026217;28;20132;-55
2023/06/22 08:23:47;;;;;;;11.90;10.45;;;26.70;73.60;;;;;;5021958;28;20469;-55
2023/06/22 08:26:14;;;;;;;12.40;11.13;;;26.70;73.60;;;;;;5024443;28;20417;-55
2023/06/22 08:28:40;;;;;;;11.73;10.25;;;26.60;73.30;;;;;;5023855;28;20077;-57
2023/06/22 08:31:05;;;;;;;11.68;10.18;;;26.60;73.20;;;;;;5023952;28;20480;-54
2023/06/22 08:33:31;;;;;;;12.32;11.13;;;26.60;73.20;;;;;;5033964;28;20052;-54
2023/06/22 08:35:58;;;;;;;11.45;10.40;;;26.50;73.50;;;;;;5027901;28;20033;-59
2023/06/22 08:38:24;;;;;;;11.55;10.43;;;26.50;73.40;;;;;;5030794;28;20116;-55
2023/06/22 08:40:50;;;;;;;11.02;9.93;;;26.40;73.30;;;;;;5026221;28;20065;-50
2023/06/22 08:43:15;;;;;;;11.05;9.85;;;26.40;73.80;;;;;;5026616;28;20049;-56
2023/06/22 08:45:41;;;;;;;11.02;9.90;;;26.30;74.00;;;;;;5024341;28;20820;-55
2023/06/22 08:48:07;;;;;;;12.55;10.60;;;26.30;74.00;;;;;;5026635;28;20128;-55
2023/06/22 08:50:32;;;;;;;11.75;10.55;;;26.30;74.00;;;;;;5028016;28;20124;-57
2023/06/22 08:52:58;;;;;;;10.45;9.25;;;26.20;74.30;;;;;;5023339;28;20129;-54
2023/06/22 08:55:23;;;;;;;10.68;9.57;;;26.20;74.40;;;;;;5022990;28;20425;-54
2023/06/22 08:57:49;;;;;;;11.55;10.35;;;26.20;74.40;;;;;;5024386;28;20075;-56
2023/06/22 09:00:20;;;;;;;10.90;9.80;;;26.20;74.30;;;;;;5017556;28;20095;-54
2023/06/22 09:02:46;;;;;;;10.98;9.15;;;26.20;74.60;;;;;;5018956;28;20036;-51
2023/06/22 09:05:12;;;;;;;10.63;9.52;;;26.10;74.60;;;;;;5017733;28;20060;-56
2023/06/22 09:07:38;;;;;;;10.18;9.18;;;26.10;74.60;;;;;;5021142;28;20029;-50
2023/06/22 09:10:05;;;;;;;11.45;9.68;;;26.10;74.20;;;;;;5021220;28;20033;-52
2023/06/22 09:12:32;;;;;;;10.45;9.45;;;26.10;74.50;;;;;;5021385;28;20064;-55
2023/06/22 09:15:00;;;;;;;10.75;9.75;;;26.10;75.00;;;;;;5022610;28;20064;-57
2023/06/22 09:17:26;;;;;;;10.70;9.57;;;26.00;75.20;;;;;;5022759;28;20100;-55
2023/06/22 09:19:51;;;;;;;10.57;9.57;;;26.00;75.40;;;;;;5001551;28;20036;-57
2023/06/22 09:22:17;;;;;;;10.23;9.00;;;26.00;75.60;;;;;;5016930;28;20087;-54
2023/06/22 09:24:43;;;;;;;9.20;8.27;;;26.00;75.20;;;;;;5017677;28;20032;-55
2023/06/22 09:27:08;;;;;;;10.35;8.85;;;26.00;75.20;;;;;;5025391;28;20029;-54
2023/06/22 09:29:34;;;;;;;9.85;8.85;;;25.90;75.50;;;;;;5018807;28;20112;-54
2023/06/22 09:32:00;;;;;;;9.73;8.73;;;25.90;75.90;;;;;;5017418;28;20040;-53
2023/06/22 09:34:26;;;;;;;10.73;9.63;;;25.80;75.80;;;;;;5024041;28;20037;-52
2023/06/22 09:36:52;;;;;;;9.73;8.73;;;25.80;75.90;;;;;;5021664;28;20030;-55
2023/06/22 09:39:18;;;;;;;10.50;9.50;;;25.80;75.70;;;;;;5025903;28;20029;-55
2023/06/22 09:41:44;;;;;;;10.02;9.02;;;25.80;75.70;;;;;;5023537;28;20540;-52
2023/06/22 09:44:10;;;;;;;10.43;9.38;;;25.80;75.20;;;;;;5029847;28;20166;-53
2023/06/22 09:46:35;;;;;;;10.82;9.77;;;25.80;74.80;;;;;;5019348;28;20053;-56
2023/06/22 09:49:01;;;;;;;9.13;8.18;;;25.70;75.80;;;;;;5023326;28;20056;-57
2023/06/22 09:51:27;;;;;;;9.75;8.70;;;25.70;75.80;;;;;;5029019;28;20033;-54
2023/06/22 09:53:55;;;;;;;9.98;8.98;;;25.70;75.50;;;;;;5023276;28;20057;-54
2023/06/22 09:56:22;;;;;;;11.23;8.88;;;25.70;75.50;;;;;;5024578;28;20026;-56
2023/06/22 09:58:50;;;;;;;11.40;8.73;;;25.60;75.40;;;;;;5021939;28;20187;-55
2023/06/22 10:01:15;;;;;;;10.40;8.93;;;25.60;76.30;;;;;;5024555;28;20029;-56
2023/06/22 10:03:41;;;;;;;9.45;7.70;;;25.60;75.80;;;;;;5019422;28;20040;-55
2023/06/22 10:06:07;;;;;;;9.63;8.65;;;25.60;75.00;;;;;;5029699;28;20036;-56
2023/06/22 10:08:33;;;;;;;11.15;8.45;;;25.60;75.70;;;;;;5024649;28;20047;-56
2023/06/22 10:10:59;;;;;;;8.85;7.93;;;25.60;76.50;;;;;;5027401;28;20469;-57
2023/06/22 10:13:24;;;;;;;8.23;7.20;;;25.60;76.30;;;;;;5025734;28;20138;-56
2023/06/22 10:15:51;;;;;;;11.00;6.97;;;25.60;75.40;;;;;;5022212;28;20025;-53
2023/06/22 10:18:18;;;;;;;7.82;6.60;;;25.70;73.80;;;;;;5022296;28;20033;-51
2023/06/22 10:20:45;;;;;;;7.07;6.38;;;25.70;72.90;;;;;;5001383;28;20030;-52
2023/06/22 10:23:10;;;;;;;7.20;6.40;;;25.70;71.70;;;;;;5021087;28;20235;-56
2023/06/22 10:25:36;;;;;;;7.10;6.40;;;25.80;71.00;;;;;;5025852;28;20108;-56
2023/06/22 10:28:02;;;;;;;9.25;6.50;;;25.80;70.00;;;;;;5026027;28;20036;-57
2023/06/22 10:30:28;;;;;;;7.63;5.95;;;25.80;68.60;;;;;;5022865;28;20037;-57
2023/06/22 10:32:54;;;;;;;7.78;6.72;;;25.80;68.20;;;;;;5034689;28;20034;-57
2023/06/22 10:35:20;;;;;;;10.43;6.68;;;25.90;68.70;;;;;;5032348;28;20037;-56
2023/06/22 10:37:46;;;;;;;9.35;6.72;;;25.90;69.00;;;;;;5020811;28;20476;-56
2023/06/22 10:40:14;;;;;;;7.28;6.38;;;25.90;68.40;;;;;;5015153;28;20029;-55
2023/06/22 10:42:40;;;;;;;7.38;6.30;;;26.00;69.10;;;;;;5022009;28;20071;-55
2023/06/22 10:45:07;;;;;;;8.45;6.50;;;26.00;68.80;;;;;;5023051;28;20566;-57
2023/06/22 10:47:32;;;;;;;7.90;6.38;;;26.10;68.70;;;;;;5024564;28;20612;-57
2023/06/22 10:49:58;;;;;;;7.90;6.90;;;26.00;68.40;;;;;;5017325;28;20040;-56
2023/06/22 10:52:23;;;;;;;10.05;7.68;;;26.10;67.60;;;;;;5017726;28;20029;-57
2023/06/22 10:54:49;;;;;;;9.93;8.18;;;26.10;66.40;;;;;;5015907;28;20038;-56
2023/06/22 10:57:15;;;;;;;9.38;8.10;;;26.10;65.90;;;;;;5018531;28;20026;-57
2023/06/22 10:59:40;;;;;;;10.65;8.10;;;26.10;65.50;;;;;;5020049;28;20029;-55
2023/06/22 11:02:06;;;;;;;8.95;7.63;;;26.10;65.20;;;;;;5021780;28;20030;-54
2023/06/22 11:04:32;;;;;;;8.60;7.70;;;26.10;64.90;;;;;;5017700;28;20053;-56
2023/06/22 11:06:58;;;;;;;9.30;7.80;;;26.10;64.90;;;;;;5052309;28;20033;-57
2023/06/22 11:09:23;;;;;;;9.70;8.02;;;26.10;65.00;;;;;;5015204;28;20427;-57
2023/06/22 11:11:53;;;;;;;8.65;7.75;;;26.10;65.10;;;;;;5021023;28;20025;-51
2023/06/22 11:14:19;;;;;;;8.82;7.93;;;26.10;65.10;;;;;;5019059;28;20029;-52
2023/06/22 11:16:46;;;;;;;9.70;8.70;;;26.10;65.50;;;;;;5020290;28;20385;-49
2023/06/22 11:19:12;;;;;;;10.50;9.20;;;26.10;65.10;;;;;;5021044;28;20155;-48
2023/06/22 11:21:37;;;;;;;10.10;9.05;;;26.10;64.60;;;;;;5023683;28;20628;-51
2023/06/22 11:24:03;;;;;;;10.30;9.20;;;26.10;63.90;;;;;;5026747;28;20041;-54
2023/06/22 11:26:29;;;;;;;10.30;9.20;;;26.10;63.70;;;;;;5022021;28;20033;-53
2023/06/22 11:28:55;;;;;;;9.73;8.40;;;26.10;63.20;;;;;;5017811;28;20060;-57
2023/06/22 11:31:21;;;;;;;9.52;8.45;;;26.10;62.60;;;;;;5020492;28;20035;-57
2023/06/22 11:33:47;;;;;;;9.95;8.95;;;26.10;62.50;;;;;;5021077;28;20044;-57
2023/06/22 11:36:14;;;;;;;10.00;8.10;;;26.10;62.40;;;;;;5028791;28;20037;-50
2023/06/22 11:38:39;;;;;;;9.82;8.10;;;26.10;62.10;;;;;;5019970;28;20029;-53
2023/06/22 11:41:07;;;;;;;8.02;7.25;;;26.20;61.90;;;;;;5017092;28;20822;-54
2023/06/22 11:43:33;;;;;;;8.07;7.28;;;26.20;61.60;;;;;;5029968;28;20093;-56
2023/06/22 11:45:59;;;;;;;7.78;6.95;;;26.20;60.90;;;;;;5024778;28;20029;-52
2023/06/22 11:48:25;;;;;;;7.35;6.57;;;26.20;60.40;;;;;;5016158;28;20107;-54
2023/06/22 11:50:51;;;;;;;9.00;7.07;;;26.20;60.40;;;;;;5022694;28;20439;-51
2023/06/22 11:53:17;;;;;;;27.23;16.85;;;26.20;60.10;;;;;;5026393;28;20060;-56
2023/06/22 11:55:46;;;;;;;33.85;22.00;;;26.20;59.70;;;;;;5022393;28;20485;-56
2023/06/22 11:58:12;;;;;;;34.03;21.42;;;26.20;60.00;;;;;;5029070;28;20392;-55
2023/06/22 12:00:38;;;;;;;23.38;16.23;;;26.10;59.80;;;;;;5025653;28;20029;-50
2023/06/22 12:03:03;;;;;;;16.83;10.30;;;26.10;58.90;;;;;;5025677;28;20393;-57
2023/06/22 12:05:29;;;;;;;12.43;7.80;;;26.10;58.50;;;;;;5029450;28;20111;-55
2023/06/22 12:07:55;;;;;;;10.32;7.18;;;26.10;58.40;;;;;;5020866;28;20034;-54
2023/06/22 12:10:25;;;;;;;9.48;6.53;;;26.10;58.20;;;;;;5032111;28;20021;-53
2023/06/22 12:12:51;;;;;;;7.30;5.70;;;26.10;58.10;;;;;;5013365;28;20033;-55
2023/06/22 12:15:17;;;;;;;6.53;5.82;;;26.10;57.80;;;;;;5028206;28;20034;-54
2023/06/22 12:17:43;;;;;;;5.68;4.85;;;26.10;57.70;;;;;;5030263;28;20037;-53
2023/06/22 12:20:09;;;;;;;5.80;4.93;;;26.10;57.40;;;;;;5024194;28;20389;-50
2023/06/22 12:22:37;;;;;;;10.65;5.15;;;26.10;56.90;;;;;;5024614;28;20030;-53
2023/06/22 12:25:03;;;;;;;11.02;8.50;;;26.10;56.70;;;;;;5027311;28;20181;-55
2023/06/22 12:27:30;;;;;;;11.68;8.10;;;26.10;56.40;;;;;;5025503;28;20083;-55
2023/06/22 12:29:56;;;;;;;18.00;10.48;;;26.10;56.20;;;;;;5024257;28;20025;-55
2023/06/22 12:32:22;;;;;;;18.20;10.98;;;26.20;56.00;;;;;;5025099;28;20028;-52
2023/06/22 12:34:47;;;;;;;16.65;9.95;;;26.20;56.10;;;;;;5050734;28;20029;-53
2023/06/22 12:37:13;;;;;;;14.18;8.77;;;26.20;56.50;;;;;;5027221;28;20116;-52
2023/06/22 12:39:40;;;;;;;13.63;8.90;;;26.20;56.70;;;;;;5021586;28;20104;-54
2023/06/22 12:42:08;;;;;;;15.20;9.02;;;26.20;56.50;;;;;;5021383;28;20031;-54